sensor_id;sensor_type;location;lat;lon;timestamp;pressure;altitude;pressure_sealevel;temperature;humidity
51245;BME280;37840;47.562;18.738;2023-05-21T00:01:02;99835.66;;;18.72;62.84
51245;BME280;37840;47.562;18.738;2023-05-21T00:03:30;99833.78;;;18.73;63.01
51245;BME280;37840;47.562;18.738;2023-05-21T00:05:56;99831.94;;;18.73;62.83
51245;BME280;37840;47.562;18.738;2023-05-21T00:08:22;99836.00;;;18.78;62.72
51245;BME280;37840;47.562;18.738;2023-05-21T00:10:48;99838.44;;;18.81;62.55
51245;BME280;37840;47.562;18.738;2023-05-21T00:13:14;99833.66;;;18.74;62.75
51245;BME280;37840;47.562;18.738;2023-05-21T00:15:41;99832.44;;;18.69;63.12
51245;BME280;37840;47.562;18.738;2023-05-21T00:18:07;99833.37;;;18.60;63.25
51245;BME280;37840;47.562;18.738;2023-05-21T00:20:33;99841.97;;;18.63;63.24
51245;BME280;37840;47.562;18.738;2023-05-21T00:22:59;99833.75;;;18.65;63.32
51245;BME280;37840;47.562;18.738;2023-05-21T00:25:28;99831.19;;;18.63;63.24
51245;BME280;37840;47.562;18.738;2023-05-21T00:27:55;99826.88;;;18.70;63.55
51245;BME280;37840;47.562;18.738;2023-05-21T00:30:21;99826.34;;;18.67;64.03
51245;BME280;37840;47.562;18.738;2023-05-21T00:32:46;99826.69;;;18.64;64.44
51245;BME280;37840;47.562;18.738;2023-05-21T00:35:13;99829.47;;;18.54;64.81
51245;BME280;37840;47.562;18.738;2023-05-21T00:37:39;99842.41;;;18.50;65.13
51245;BME280;37840;47.562;18.738;2023-05-21T00:40:06;99840.72;;;18.49;64.83
51245;BME280;37840;47.562;18.738;2023-05-21T00:42:34;99843.91;;;18.53;64.98
51245;BME280;37840;47.562;18.738;2023-05-21T00:45:05;99837.34;;;18.47;64.90
51245;BME280;37840;47.562;18.738;2023-05-21T00:47:32;99837.50;;;18.46;65.24
51245;BME280;37840;47.562;18.738;2023-05-21T00:50:00;99849.09;;;18.46;65.04
51245;BME280;37840;47.562;18.738;2023-05-21T00:52:26;99838.66;;;18.43;64.74
51245;BME280;37840;47.562;18.738;2023-05-21T00:54:52;99844.66;;;18.37;65.06
51245;BME280;37840;47.562;18.738;2023-05-21T00:57:19;99846.13;;;18.31;65.47
51245;BME280;37840;47.562;18.738;2023-05-21T00:59:50;99848.13;;;18.29;65.10
51245;BME280;37840;47.562;18.738;2023-05-21T01:02:16;99846.06;;;18.23;65.45
51245;BME280;37840;47.562;18.738;2023-05-21T01:04:45;99853.06;;;18.16;65.51
51245;BME280;37840;47.562;18.738;2023-05-21T01:07:11;99849.00;;;18.12;65.50
51245;BME280;37840;47.562;18.738;2023-05-21T01:09:39;99846.47;;;18.10;65.28
51245;BME280;37840;47.562;18.738;2023-05-21T01:12:06;99837.53;;;18.10;64.70
51245;BME280;37840;47.562;18.738;2023-05-21T01:14:33;99836.72;;;18.09;65.13
51245;BME280;37840;47.562;18.738;2023-05-21T01:17:01;99827.47;;;18.12;64.99
51245;BME280;37840;47.562;18.738;2023-05-21T01:19:27;99834.50;;;18.05;65.77
51245;BME280;37840;47.562;18.738;2023-05-21T01:22:04;99821.44;;;17.92;66.05
51245;BME280;37840;47.562;18.738;2023-05-21T01:24:30;99821.44;;;17.92;66.34
51245;BME280;37840;47.562;18.738;2023-05-21T01:26:57;99827.75;;;17.55;68.28
51245;BME280;37840;47.562;18.738;2023-05-21T01:29:23;99824.53;;;17.51;68.02
51245;BME280;37840;47.562;18.738;2023-05-21T01:32:39;99823.84;;;17.49;68.02
51245;BME280;37840;47.562;18.738;2023-05-21T01:35:27;99820.03;;;17.42;68.24
51245;BME280;37840;47.562;18.738;2023-05-21T01:38:04;99814.53;;;17.44;68.09
51245;BME280;37840;47.562;18.738;2023-05-21T01:40:42;99818.81;;;17.37;68.99
51245;BME280;37840;47.562;18.738;2023-05-21T01:43:10;99822.50;;;17.36;69.15
51245;BME280;37840;47.562;18.738;2023-05-21T01:45:39;99820.75;;;17.17;70.09
51245;BME280;37840;47.562;18.738;2023-05-21T01:48:08;99818.06;;;17.17;70.50
51245;BME280;37840;47.562;18.738;2023-05-21T01:50:36;99816.84;;;17.11;70.67
51245;BME280;37840;47.562;18.738;2023-05-21T01:53:03;99819.69;;;17.09;70.44
51245;BME280;37840;47.562;18.738;2023-05-21T01:55:31;99816.16;;;17.09;70.68
51245;BME280;37840;47.562;18.738;2023-05-21T01:57:58;99818.75;;;17.01;71.07
51245;BME280;37840;47.562;18.738;2023-05-21T02:00:25;99816.06;;;16.91;71.50
51245;BME280;37840;47.562;18.738;2023-05-21T02:02:54;99812.34;;;17.02;71.03
51245;BME280;37840;47.562;18.738;2023-05-21T02:05:20;99823.78;;;17.04;70.86
51245;BME280;37840;47.562;18.738;2023-05-21T02:07:46;99821.28;;;17.02;70.72
51245;BME280;37840;47.562;18.738;2023-05-21T02:10:12;99818.66;;;17.10;70.48
51245;BME280;37840;47.562;18.738;2023-05-21T02:12:38;99824.91;;;17.11;70.44
51245;BME280;37840;47.562;18.738;2023-05-21T02:15:04;99829.28;;;17.12;70.12
51245;BME280;37840;47.562;18.738;2023-05-21T02:17:30;99822.59;;;17.16;70.48
51245;BME280;37840;47.562;18.738;2023-05-21T02:19:59;99829.41;;;17.10;69.81
51245;BME280;37840;47.562;18.738;2023-05-21T02:22:53;99827.00;;;17.17;69.57
51245;BME280;37840;47.562;18.738;2023-05-21T02:25:19;99822.34;;;17.19;69.75
51245;BME280;37840;47.562;18.738;2023-05-21T02:27:45;99823.69;;;17.23;69.34
51245;BME280;37840;47.562;18.738;2023-05-21T02:30:13;99824.38;;;17.25;69.13
51245;BME280;37840;47.562;18.738;2023-05-21T02:32:40;99823.69;;;17.23;68.31
51245;BME280;37840;47.562;18.738;2023-05-21T02:35:08;99817.47;;;17.23;68.24
51245;BME280;37840;47.562;18.738;2023-05-21T02:37:35;99820.16;;;17.23;68.20
51245;BME280;37840;47.562;18.738;2023-05-21T02:40:02;99812.09;;;17.23;68.25
51245;BME280;37840;47.562;18.738;2023-05-21T02:42:30;99811.22;;;17.32;68.34
51245;BME280;37840;47.562;18.738;2023-05-21T02:44:56;99813.75;;;17.33;68.42
51245;BME280;37840;47.562;18.738;2023-05-21T02:47:22;99820.47;;;17.20;69.06
51245;BME280;37840;47.562;18.738;2023-05-21T02:49:49;99817.44;;;17.05;69.69
51245;BME280;37840;47.562;18.738;2023-05-21T02:52:16;99810.56;;;16.92;69.99
51245;BME280;37840;47.562;18.738;2023-05-21T02:54:47;99818.66;;;16.83;70.75
51245;BME280;37840;47.562;18.738;2023-05-21T02:57:13;99825.59;;;16.85;70.31
51245;BME280;37840;47.562;18.738;2023-05-21T02:59:38;99824.72;;;16.85;70.12
51245;BME280;37840;47.562;18.738;2023-05-21T03:02:05;99827.72;;;16.82;69.71
51245;BME280;37840;47.562;18.738;2023-05-21T03:04:31;99821.50;;;16.81;70.12
51245;BME280;37840;47.562;18.738;2023-05-21T03:06:58;99820.38;;;16.84;70.41
51245;BME280;37840;47.562;18.738;2023-05-21T03:09:26;99823.31;;;16.81;70.46
51245;BME280;37840;47.562;18.738;2023-05-21T03:11:52;99812.88;;;16.87;69.97
51245;BME280;37840;47.562;18.738;2023-05-21T03:14:18;99817.78;;;16.92;69.32
51245;BME280;37840;47.562;18.738;2023-05-21T03:16:44;99817.09;;;16.90;69.89
51245;BME280;37840;47.562;18.738;2023-05-21T03:19:11;99818.75;;;16.91;69.68
51245;BME280;37840;47.562;18.738;2023-05-21T03:21:37;99831.34;;;16.90;69.80
51245;BME280;37840;47.562;18.738;2023-05-21T03:24:05;99823.69;;;16.96;69.37
51245;BME280;37840;47.562;18.738;2023-05-21T03:26:31;99820.72;;;16.99;69.10
51245;BME280;37840;47.562;18.738;2023-05-21T03:28:57;99829.47;;;17.01;69.08
51245;BME280;37840;47.562;18.738;2023-05-21T03:31:24;99824.25;;;16.99;69.54
51245;BME280;37840;47.562;18.738;2023-05-21T03:33:51;99824.25;;;16.99;69.49
51245;BME280;37840;47.562;18.738;2023-05-21T03:36:18;99827.50;;;17.03;68.75
51245;BME280;37840;47.562;18.738;2023-05-21T03:38:45;99832.63;;;16.96;70.06
51245;BME280;37840;47.562;18.738;2023-05-21T03:41:11;99828.66;;;17.00;68.99
51245;BME280;37840;47.562;18.738;2023-05-21T03:43:37;99827.19;;;17.06;69.14
51245;BME280;37840;47.562;18.738;2023-05-21T03:46:03;99831.03;;;17.03;68.35
51245;BME280;37840;47.562;18.738;2023-05-21T03:48:29;99832.28;;;17.09;68.74
51245;BME280;37840;47.562;18.738;2023-05-21T03:50:55;99831.25;;;17.10;68.19
51245;BME280;37840;47.562;18.738;2023-05-21T03:53:21;99828.56;;;17.10;68.90
51245;BME280;37840;47.562;18.738;2023-05-21T03:55:47;99830.53;;;17.18;68.36
51245;BME280;37840;47.562;18.738;2023-05-21T03:58:22;99838.44;;;17.19;68.30
51245;BME280;37840;47.562;18.738;2023-05-21T04:00:49;99833.50;;;17.15;69.05
51245;BME280;37840;47.562;18.738;2023-05-21T04:03:15;99836.75;;;17.18;68.58
51245;BME280;37840;47.562;18.738;2023-05-21T04:05:41;99827.53;;;17.21;68.93
51245;BME280;37840;47.562;18.738;2023-05-21T04:08:07;99830.22;;;17.21;68.04
51245;BME280;37840;47.562;18.738;2023-05-21T04:10:33;99834.75;;;17.20;69.14
51245;BME280;37840;47.562;18.738;2023-05-21T04:12:59;99838.44;;;17.19;68.62
51245;BME280;37840;47.562;18.738;2023-05-21T04:15:25;99828.94;;;17.25;68.64
51245;BME280;37840;47.562;18.738;2023-05-21T04:17:52;99837.81;;;17.25;68.56
51245;BME280;37840;47.562;18.738;2023-05-21T04:20:20;99843.91;;;17.27;68.67
51245;BME280;37840;47.562;18.738;2023-05-21T04:22:46;99838.53;;;17.27;67.89
51245;BME280;37840;47.562;18.738;2023-05-21T04:25:12;99836.41;;;17.31;68.67
51245;BME280;37840;47.562;18.738;2023-05-21T04:27:38;99829.59;;;17.37;67.84
51245;BME280;37840;47.562;18.738;2023-05-21T04:30:05;99828.28;;;17.41;67.73
51245;BME280;37840;47.562;18.738;2023-05-21T04:32:31;99828.09;;;17.42;67.41
51245;BME280;37840;47.562;18.738;2023-05-21T04:34:59;99833.06;;;17.47;67.11
51245;BME280;37840;47.562;18.738;2023-05-21T04:37:26;99831.59;;;17.52;67.08
51245;BME280;37840;47.562;18.738;2023-05-21T04:39:59;99832.28;;;17.55;66.61
51245;BME280;37840;47.562;18.738;2023-05-21T04:42:26;99831.13;;;17.57;66.74
51245;BME280;37840;47.562;18.738;2023-05-21T04:44:52;99831.53;;;17.62;65.80
51245;BME280;37840;47.562;18.738;2023-05-21T04:47:20;99836.44;;;17.67;65.60
51245;BME280;37840;47.562;18.738;2023-05-21T04:49:46;99841.81;;;17.67;65.04
51245;BME280;37840;47.562;18.738;2023-05-21T04:52:12;99841.91;;;17.75;64.89
51245;BME280;37840;47.562;18.738;2023-05-21T04:54:38;99835.69;;;17.75;65.16
51245;BME280;37840;47.562;18.738;2023-05-21T04:57:07;99833.97;;;17.83;64.65
51245;BME280;37840;47.562;18.738;2023-05-21T04:59:33;99844.81;;;17.91;64.39
51245;BME280;37840;47.562;18.738;2023-05-21T05:02:00;99830.00;;;17.96;64.03
51245;BME280;37840;47.562;18.738;2023-05-21T05:04:25;99845.41;;;18.03;64.33
51245;BME280;37840;47.562;18.738;2023-05-21T05:06:51;99854.53;;;18.10;65.69
51245;BME280;37840;47.562;18.738;2023-05-21T05:09:18;99843.69;;;18.20;64.69
51245;BME280;37840;47.562;18.738;2023-05-21T05:11:46;99845.75;;;18.26;65.04
51245;BME280;37840;47.562;18.738;2023-05-21T05:14:12;99843.97;;;18.35;64.15
51245;BME280;37840;47.562;18.738;2023-05-21T05:16:38;99843.91;;;18.45;63.10
51245;BME280;37840;47.562;18.738;2023-05-21T05:19:04;99840.56;;;18.51;64.52
51245;BME280;37840;47.562;18.738;2023-05-21T05:21:29;99845.84;;;18.61;64.50
51245;BME280;37840;47.562;18.738;2023-05-21T05:23:56;99842.66;;;18.65;64.15
51245;BME280;37840;47.562;18.738;2023-05-21T05:26:22;99838.34;;;18.72;63.47
51245;BME280;37840;47.562;18.738;2023-05-21T05:28:48;99832.72;;;18.84;64.28
51245;BME280;37840;47.562;18.738;2023-05-21T05:31:14;99830.38;;;18.89;63.60
51245;BME280;37840;47.562;18.738;2023-05-21T05:33:40;99828.75;;;18.96;61.71
51245;BME280;37840;47.562;18.738;2023-05-21T05:36:06;99826.09;;;19.04;63.23
51245;BME280;37840;47.562;18.738;2023-05-21T05:38:33;99829.12;;;19.09;62.36
51245;BME280;37840;47.562;18.738;2023-05-21T05:41:00;99833.84;;;19.07;62.08
51245;BME280;37840;47.562;18.738;2023-05-21T05:43:26;99835.09;;;19.21;63.49
51245;BME280;37840;47.562;18.738;2023-05-21T05:45:52;99831.03;;;19.25;61.00
51245;BME280;37840;47.562;18.738;2023-05-21T05:48:18;99835.78;;;19.31;62.51
51245;BME280;37840;47.562;18.738;2023-05-21T05:50:44;99832.13;;;19.41;63.16
51245;BME280;37840;47.562;18.738;2023-05-21T05:53:11;99835.84;;;19.48;64.03
51245;BME280;37840;47.562;18.738;2023-05-21T05:55:38;99831.97;;;19.59;63.57
51245;BME280;37840;47.562;18.738;2023-05-21T05:58:05;99829.66;;;19.72;63.67
51245;BME280;37840;47.562;18.738;2023-05-21T06:00:31;99836.09;;;19.79;63.79
51245;BME280;37840;47.562;18.738;2023-05-21T06:02:57;99834.41;;;19.78;61.89
51245;BME280;37840;47.562;18.738;2023-05-21T06:05:22;99838.12;;;19.77;63.30
51245;BME280;37840;47.562;18.738;2023-05-21T06:07:48;99840.50;;;19.96;59.12
51245;BME280;37840;47.562;18.738;2023-05-21T06:10:14;99835.63;;;19.92;59.99
51245;BME280;37840;47.562;18.738;2023-05-21T06:12:40;99832.25;;;19.98;60.58
51245;BME280;37840;47.562;18.738;2023-05-21T06:15:07;99833.25;;;20.13;59.77
51245;BME280;37840;47.562;18.738;2023-05-21T06:17:33;99832.59;;;20.36;58.26
51245;BME280;37840;47.562;18.738;2023-05-21T06:19:59;99830.22;;;20.33;57.59
51245;BME280;37840;47.562;18.738;2023-05-21T06:22:25;99834.78;;;20.24;58.42
51245;BME280;37840;47.562;18.738;2023-05-21T06:24:51;99832.22;;;20.23;57.83
51245;BME280;37840;47.562;18.738;2023-05-21T06:27:17;99828.84;;;20.21;59.35
51245;BME280;37840;47.562;18.738;2023-05-21T06:29:43;99828.69;;;20.22;58.35
51245;BME280;37840;47.562;18.738;2023-05-21T06:32:08;99821.44;;;20.31;57.52
51245;BME280;37840;47.562;18.738;2023-05-21T06:34:34;99826.00;;;20.30;57.90
51245;BME280;37840;47.562;18.738;2023-05-21T06:37:00;99821.25;;;20.41;57.07
51245;BME280;37840;47.562;18.738;2023-05-21T06:39:26;99820.59;;;20.47;57.39
51245;BME280;37840;47.562;18.738;2023-05-21T06:41:52;99821.06;;;20.42;56.89
51245;BME280;37840;47.562;18.738;2023-05-21T06:44:19;99812.78;;;20.52;57.16
51245;BME280;37840;47.562;18.738;2023-05-21T06:46:44;99821.22;;;20.73;58.33
51245;BME280;37840;47.562;18.738;2023-05-21T06:49:10;99809.38;;;20.83;55.92
51245;BME280;37840;47.562;18.738;2023-05-21T06:51:38;99820.22;;;20.74;56.30
51245;BME280;37840;47.562;18.738;2023-05-21T06:54:04;99823.41;;;20.78;56.72
51245;BME280;37840;47.562;18.738;2023-05-21T06:56:30;99820.19;;;20.83;57.82
51245;BME280;37840;47.562;18.738;2023-05-21T06:58:56;99811.56;;;20.87;56.67
51245;BME280;37840;47.562;18.738;2023-05-21T07:01:22;99810.53;;;20.88;56.20
51245;BME280;37840;47.562;18.738;2023-05-21T07:03:49;99808.28;;;21.08;56.68
51245;BME280;37840;47.562;18.738;2023-05-21T07:06:15;99808.56;;;21.22;55.15
51245;BME280;37840;47.562;18.738;2023-05-21T07:08:41;99804.44;;;21.34;55.37
51245;BME280;37840;47.562;18.738;2023-05-21T07:11:07;99802.87;;;21.39;55.71
51245;BME280;37840;47.562;18.738;2023-05-21T07:13:36;99800.09;;;21.56;56.22
51245;BME280;37840;47.562;18.738;2023-05-21T07:16:02;99800.69;;;21.43;54.70
51245;BME280;37840;47.562;18.738;2023-05-21T07:18:28;99793.63;;;21.34;54.50
51245;BME280;37840;47.562;18.738;2023-05-21T07:20:54;99798.69;;;21.29;53.90
51245;BME280;37840;47.562;18.738;2023-05-21T07:23:20;99797.63;;;21.46;54.79
51245;BME280;37840;47.562;18.738;2023-05-21T07:25:46;99796.13;;;21.67;55.16
51245;BME280;37840;47.562;18.738;2023-05-21T07:28:14;99788.97;;;21.74;53.44
51245;BME280;37840;47.562;18.738;2023-05-21T07:30:40;99788.19;;;21.65;52.36
51245;BME280;37840;47.562;18.738;2023-05-21T07:33:06;99788.97;;;21.74;51.59
51245;BME280;37840;47.562;18.738;2023-05-21T07:35:32;99791.50;;;21.75;52.28
51245;BME280;37840;47.562;18.738;2023-05-21T07:37:58;99785.13;;;21.91;53.06
51245;BME280;37840;47.562;18.738;2023-05-21T07:40:24;99792.38;;;22.14;52.05
51245;BME280;37840;47.562;18.738;2023-05-21T07:42:50;99782.75;;;22.34;51.40
51245;BME280;37840;47.562;18.738;2023-05-21T07:45:16;99784.91;;;22.39;51.45
51245;BME280;37840;47.562;18.738;2023-05-21T07:47:43;99787.91;;;22.44;51.10
51245;BME280;37840;47.562;18.738;2023-05-21T07:50:10;99788.16;;;22.34;51.04
51245;BME280;37840;47.562;18.738;2023-05-21T07:52:36;99785.97;;;22.53;52.99
51245;BME280;37840;47.562;18.738;2023-05-21T07:55:02;99789.59;;;22.60;52.34
51245;BME280;37840;47.562;18.738;2023-05-21T07:57:28;99771.75;;;22.51;50.58
51245;BME280;37840;47.562;18.738;2023-05-21T07:59:54;99778.66;;;22.53;53.66
51245;BME280;37840;47.562;18.738;2023-05-21T08:02:21;99773.06;;;22.70;51.66
51245;BME280;37840;47.562;18.738;2023-05-21T08:04:47;99776.69;;;22.77;51.34
51245;BME280;37840;47.562;18.738;2023-05-21T08:07:13;99777.19;;;22.66;52.03
51245;BME280;37840;47.562;18.738;2023-05-21T08:09:41;99777.19;;;22.80;51.46
51245;BME280;37840;47.562;18.738;2023-05-21T08:12:07;99776.53;;;22.78;50.22
51245;BME280;37840;47.562;18.738;2023-05-21T08:14:33;99779.59;;;22.90;53.34
51245;BME280;37840;47.562;18.738;2023-05-21T08:16:59;99773.34;;;23.05;51.35
51245;BME280;37840;47.562;18.738;2023-05-21T08:19:25;99781.66;;;23.03;49.98
51245;BME280;37840;47.562;18.738;2023-05-21T08:21:51;99774.75;;;23.00;49.57
51245;BME280;37840;47.562;18.738;2023-05-21T08:24:17;99779.59;;;23.05;49.65
51245;BME280;37840;47.562;18.738;2023-05-21T08:26:42;99776.31;;;23.10;48.98
51245;BME280;37840;47.562;18.738;2023-05-21T08:29:09;99774.75;;;23.00;48.84
51245;BME280;37840;47.562;18.738;2023-05-21T08:31:35;99778.00;;;22.96;49.00
51245;BME280;37840;47.562;18.738;2023-05-21T08:34:01;99785.69;;;23.07;49.92
51245;BME280;37840;47.562;18.738;2023-05-21T08:36:27;99779.87;;;23.25;50.80
51245;BME280;37840;47.562;18.738;2023-05-21T08:38:53;99781.63;;;23.18;49.98
51245;BME280;37840;47.562;18.738;2023-05-21T08:41:20;99781.53;;;23.26;49.37
51245;BME280;37840;47.562;18.738;2023-05-21T08:43:54;99772.28;;;23.20;49.93
51245;BME280;37840;47.562;18.738;2023-05-21T08:46:22;99774.03;;;23.28;49.67
51245;BME280;37840;47.562;18.738;2023-05-21T08:48:50;99780.31;;;23.29;49.18
51245;BME280;37840;47.562;18.738;2023-05-21T08:51:20;99786.84;;;23.34;50.16
51245;BME280;37840;47.562;18.738;2023-05-21T08:53:47;99779.59;;;23.41;52.08
51245;BME280;37840;47.562;18.738;2023-05-21T08:56:15;99773.16;;;23.43;48.12
51245;BME280;37840;47.562;18.738;2023-05-21T08:58:46;99772.78;;;23.46;49.21
51245;BME280;37840;47.562;18.738;2023-05-21T09:01:12;99792.22;;;23.49;51.30
51245;BME280;37840;47.562;18.738;2023-05-21T09:03:39;99779.31;;;23.51;49.69
51245;BME280;37840;47.562;18.738;2023-05-21T09:06:09;99774.84;;;23.65;49.97
51245;BME280;37840;47.562;18.738;2023-05-21T09:08:37;99779.06;;;23.68;49.43
51245;BME280;37840;47.562;18.738;2023-05-21T09:11:07;99773.00;;;23.66;47.58
51245;BME280;37840;47.562;18.738;2023-05-21T09:13:34;99781.03;;;23.37;49.80
51245;BME280;37840;47.562;18.738;2023-05-21T09:16:00;99775.69;;;23.44;51.70
51245;BME280;37840;47.562;18.738;2023-05-21T09:18:29;99781.44;;;23.56;48.80
51245;BME280;37840;47.562;18.738;2023-05-21T09:20:55;99771.75;;;23.68;48.57
51245;BME280;37840;47.562;18.738;2023-05-21T09:23:21;99772.09;;;23.80;50.66
51245;BME280;37840;47.562;18.738;2023-05-21T09:25:47;99779.09;;;23.89;50.85
51245;BME280;37840;47.562;18.738;2023-05-21T09:28:14;99781.09;;;24.02;49.49
51245;BME280;37840;47.562;18.738;2023-05-21T09:30:48;99776.38;;;23.89;49.35
51245;BME280;37840;47.562;18.738;2023-05-21T09:33:25;99772.59;;;23.69;51.13
51245;BME280;37840;47.562;18.738;2023-05-21T09:35:51;99771.19;;;23.73;50.31
51245;BME280;37840;47.562;18.738;2023-05-21T09:38:17;99770.03;;;23.82;48.87
51245;BME280;37840;47.562;18.738;2023-05-21T09:40:46;99771.19;;;23.94;49.99
51245;BME280;37840;47.562;18.738;2023-05-21T09:43:13;99765.25;;;24.06;52.12
51245;BME280;37840;47.562;18.738;2023-05-21T09:45:52;99771.72;;;23.83;49.24
51245;BME280;37840;47.562;18.738;2023-05-21T09:48:38;99763.13;;;23.79;49.75
51245;BME280;37840;47.562;18.738;2023-05-21T09:51:12;99767.78;;;23.86;49.39
51245;BME280;37840;47.562;18.738;2023-05-21T09:53:49;99770.69;;;23.84;50.96
51245;BME280;37840;47.562;18.738;2023-05-21T09:56:21;99766.75;;;23.87;48.70
51245;BME280;37840;47.562;18.738;2023-05-21T09:58:50;99768.28;;;23.96;47.41
51245;BME280;37840;47.562;18.738;2023-05-21T10:01:18;99765.16;;;23.99;47.59
51245;BME280;37840;47.562;18.738;2023-05-21T10:03:49;99773.81;;;24.09;49.73
51245;BME280;37840;47.562;18.738;2023-05-21T10:06:17;99772.25;;;24.21;48.77
51245;BME280;37840;47.562;18.738;2023-05-21T10:08:44;99764.56;;;24.25;49.91
51245;BME280;37840;47.562;18.738;2023-05-21T10:11:13;99759.03;;;24.40;47.22
51245;BME280;37840;47.562;18.738;2023-05-21T10:13:43;99757.84;;;24.49;47.17
51245;BME280;37840;47.562;18.738;2023-05-21T10:16:09;99774.16;;;24.49;45.49
51245;BME280;37840;47.562;18.738;2023-05-21T10:18:36;99763.75;;;24.53;46.32
51245;BME280;37840;47.562;18.738;2023-05-21T10:21:04;99755.78;;;24.51;45.71
51245;BME280;37840;47.562;18.738;2023-05-21T10:23:33;99764.81;;;24.58;47.17
51245;BME280;37840;47.562;18.738;2023-05-21T10:26:00;99753.94;;;24.58;43.17
51245;BME280;37840;47.562;18.738;2023-05-21T10:28:28;99747.03;;;24.56;43.38
51245;BME280;37840;47.562;18.738;2023-05-21T10:30:55;99744.34;;;24.62;45.69
51245;BME280;37840;47.562;18.738;2023-05-21T10:33:22;99763.41;;;24.41;43.61
51245;BME280;37840;47.562;18.738;2023-05-21T10:35:50;99748.41;;;24.17;43.74
51245;BME280;37840;47.562;18.738;2023-05-21T10:38:18;99754.84;;;24.16;44.94
51245;BME280;37840;47.562;18.738;2023-05-21T10:40:46;99744.31;;;24.28;43.29
51245;BME280;37840;47.562;18.738;2023-05-21T10:49:42;99739.50;;;24.30;47.29
51245;BME280;37840;47.562;18.738;2023-05-21T11:01:06;99744.28;;;24.91;44.52
51245;BME280;37840;47.562;18.738;2023-05-21T11:03:32;99739.66;;;24.85;43.69
51245;BME280;37840;47.562;18.738;2023-05-21T11:06:01;99749.25;;;24.80;43.01
51245;BME280;37840;47.562;18.738;2023-05-21T11:08:29;99745.28;;;24.48;45.30
51245;BME280;37840;47.562;18.738;2023-05-21T11:11:01;99741.28;;;24.44;45.96
51245;BME280;37840;47.562;18.738;2023-05-21T11:13:28;99739.66;;;24.50;47.21
51245;BME280;37840;47.562;18.738;2023-05-21T11:16:13;99736.00;;;24.71;45.55
51245;BME280;37840;47.562;18.738;2023-05-21T11:18:55;99739.97;;;24.68;47.29
51245;BME280;37840;47.562;18.738;2023-05-21T11:21:22;99741.37;;;24.57;46.56
51245;BME280;37840;47.562;18.738;2023-05-21T11:23:53;99736.41;;;24.61;46.38
51245;BME280;37840;47.562;18.738;2023-05-21T11:26:22;99725.19;;;24.84;43.26
51245;BME280;37840;47.562;18.738;2023-05-21T11:29:17;99721.91;;;24.95;45.10
51245;BME280;37840;47.562;18.738;2023-05-21T11:31:46;99723.22;;;25.13;45.14
51245;BME280;37840;47.562;18.738;2023-05-21T11:34:20;99721.38;;;25.20;44.36
51245;BME280;37840;47.562;18.738;2023-05-21T11:39:44;99716.12;;;25.18;40.88
51245;BME280;37840;47.562;18.738;2023-05-21T11:42:10;99708.09;;;24.97;41.30
51245;BME280;37840;47.562;18.738;2023-05-21T11:44:42;99721.16;;;24.73;43.38
51245;BME280;37840;47.562;18.738;2023-05-21T11:47:10;99721.84;;;24.82;47.54
51245;BME280;37840;47.562;18.738;2023-05-21T11:49:37;99719.22;;;25.02;47.97
51245;BME280;37840;47.562;18.738;2023-05-21T11:52:04;99718.63;;;25.13;43.82
51245;BME280;37840;47.562;18.738;2023-05-21T11:54:32;99724.47;;;25.10;44.18
51245;BME280;37840;47.562;18.738;2023-05-21T11:57:08;99710.50;;;25.27;44.08
51245;BME280;37840;47.562;18.738;2023-05-21T11:59:35;99719.28;;;25.22;43.03
51245;BME280;37840;47.562;18.738;2023-05-21T12:02:03;99711.41;;;24.92;44.33
51245;BME280;37840;47.562;18.738;2023-05-21T12:04:33;99716.44;;;24.89;43.31
51245;BME280;37840;47.562;18.738;2023-05-21T12:07:03;99709.47;;;24.73;44.83
51245;BME280;37840;47.562;18.738;2023-05-21T12:09:29;99709.84;;;24.63;44.05
51245;BME280;37840;47.562;18.738;2023-05-21T12:11:55;99710.91;;;24.69;45.57
51245;BME280;37840;47.562;18.738;2023-05-21T12:14:21;99711.81;;;24.48;45.16
51245;BME280;37840;47.562;18.738;2023-05-21T12:16:47;99704.19;;;24.30;46.41
51245;BME280;37840;47.562;18.738;2023-05-21T12:19:16;99700.94;;;24.13;46.88
51245;BME280;37840;47.562;18.738;2023-05-21T12:21:42;99704.56;;;24.27;45.26
51245;BME280;37840;47.562;18.738;2023-05-21T12:24:08;99700.22;;;24.32;48.23
51245;BME280;37840;47.562;18.738;2023-05-21T12:26:34;99696.66;;;24.32;47.25
51245;BME280;37840;47.562;18.738;2023-05-21T12:29:03;99687.63;;;24.53;46.41
51245;BME280;37840;47.562;18.738;2023-05-21T12:31:30;99686.25;;;24.70;47.46
51245;BME280;37840;47.562;18.738;2023-05-21T12:33:57;99687.53;;;24.81;46.87
51245;BME280;37840;47.562;18.738;2023-05-21T12:36:28;99695.53;;;24.96;45.02
51245;BME280;37840;47.562;18.738;2023-05-21T12:38:56;99684.66;;;24.96;44.48
51245;BME280;37840;47.562;18.738;2023-05-21T12:41:22;99669.38;;;24.95;42.13
51245;BME280;37840;47.562;18.738;2023-05-21T12:43:49;99678.84;;;25.12;44.83
51245;BME280;37840;47.562;18.738;2023-05-21T12:46:19;99674.09;;;25.21;43.46
51245;BME280;37840;47.562;18.738;2023-05-21T12:49:02;99677.84;;;25.20;47.58
51245;BME280;37840;47.562;18.738;2023-05-21T12:51:39;99668.47;;;25.29;40.35
51245;BME280;37840;47.562;18.738;2023-05-21T12:54:11;99663.47;;;25.46;41.56
51245;BME280;37840;47.562;18.738;2023-05-21T12:56:45;99666.37;;;25.58;44.67
51245;BME280;37840;47.562;18.738;2023-05-21T12:59:12;99663.22;;;25.48;43.24
51245;BME280;37840;47.562;18.738;2023-05-21T13:01:40;99654.66;;;25.44;41.15
51245;BME280;37840;47.562;18.738;2023-05-21T13:04:06;99658.84;;;25.53;42.41
51245;BME280;37840;47.562;18.738;2023-05-21T13:06:41;99658.63;;;25.61;41.84
51245;BME280;37840;47.562;18.738;2023-05-21T13:09:07;99654.22;;;25.47;39.54
51245;BME280;37840;47.562;18.738;2023-05-21T13:11:33;99644.56;;;25.25;41.52